Time;durP1;ratioP1;P1;durP2;ratioP2;P2;SDS_P1;SDS_P2;PMS_P1;PMS_P2;Temp;Humidity;BMP_temperature;BMP_pressure;BME280_temperature;BME280_humidity;BME280_pressure;Samples;Min_cycle;Max_cycle;Signal;HPM_P1;HPM_P2
2023/11/23 00:00:38;;;;;;;12.07;8.63;;;3.10;99.90;;;;;;5004166;28;21183;-61
2023/11/23 00:03:05;;;;;;;10.50;7.73;;;3.00;99.90;;;;;;5004989;28;20586;-61
2023/11/23 00:05:32;;;;;;;11.37;8.13;;;2.90;99.90;;;;;;5003730;28;20237;-61
2023/11/23 00:08:01;;;;;;;11.77;9.20;;;2.90;99.90;;;;;;5002016;28;20650;-61
2023/11/23 00:10:28;;;;;;;10.20;8.00;;;2.90;99.90;;;;;;5004098;28;20247;-61
2023/11/23 00:12:54;;;;;;;14.70;9.00;;;2.90;99.90;;;;;;5007302;28;20207;-61
2023/11/23 00:15:22;;;;;;;9.60;7.33;;;2.90;99.90;;;;;;5005534;28;20207;-61
2023/11/23 00:17:48;;;;;;;11.47;7.93;;;2.90;99.90;;;;;;5002198;28;20196;-61
2023/11/23 00:20:15;;;;;;;10.33;8.63;;;2.90;99.90;;;;;;5002483;28;20227;-61
2023/11/23 00:22:42;;;;;;;10.17;7.93;;;2.80;99.90;;;;;;5002564;28;20704;-61
2023/11/23 00:25:13;;;;;;;11.07;7.67;;;2.70;99.90;;;;;;5002232;28;20640;-61
2023/11/23 00:27:40;;;;;;;9.00;7.00;;;2.80;99.90;;;;;;5005136;28;20258;-61
2023/11/23 00:30:08;;;;;;;10.47;6.90;;;2.80;99.90;;;;;;5004915;28;20227;-61
2023/11/23 00:32:34;;;;;;;7.90;6.70;;;2.90;99.90;;;;;;5003147;28;20207;-61
2023/11/23 00:35:03;;;;;;;11.33;7.13;;;2.90;99.90;;;;;;5002046;28;20212;-61
2023/11/23 00:37:31;;;;;;;7.90;7.03;;;3.00;99.90;;;;;;5002986;28;20283;-61
2023/11/23 00:39:58;;;;;;;8.73;7.80;;;3.10;99.90;;;;;;5005103;28;20309;-61
2023/11/23 00:42:26;;;;;;;7.90;6.77;;;3.10;99.90;;;;;;5004264;28;20426;-61
2023/11/23 00:44:52;;;;;;;10.00;8.10;;;3.20;99.90;;;;;;5000780;28;20204;-61
2023/11/23 00:47:20;;;;;;;9.30;7.60;;;3.30;99.90;;;;;;5001308;28;20591;-61
2023/11/23 00:49:47;;;;;;;10.70;8.43;;;3.40;99.90;;;;;;5004899;28;20627;-61
2023/11/23 00:52:14;;;;;;;9.90;8.37;;;3.60;99.90;;;;;;5004565;28;20202;-61
2023/11/23 00:54:42;;;;;;;9.23;7.43;;;3.60;99.90;;;;;;5001583;28;20781;-61
2023/11/23 00:57:09;;;;;;;8.70;7.03;;;3.70;99.90;;;;;;5001123;28;20215;-61
2023/11/23 00:59:37;;;;;;;9.80;6.60;;;3.80;99.90;;;;;;5002753;28;20239;-61
2023/11/23 01:02:04;;;;;;;10.37;6.77;;;3.80;99.90;;;;;;5004533;28;20230;-61
2023/11/23 01:04:30;;;;;;;8.77;7.30;;;3.90;99.90;;;;;;5003016;28;20203;-62
2023/11/23 01:06:57;;;;;;;8.03;7.07;;;3.90;99.90;;;;;;5000913;28;20708;-61
2023/11/23 01:09:24;;;;;;;11.20;7.00;;;3.90;99.90;;;;;;5001135;28;20227;-61
2023/11/23 01:11:51;;;;;;;11.47;7.67;;;4.00;99.90;;;;;;5004510;28;20204;-62
2023/11/23 01:14:17;;;;;;;8.87;7.03;;;4.10;99.90;;;;;;5004620;28;20223;-61
2023/11/23 01:16:46;;;;;;;10.63;7.23;;;4.20;99.90;;;;;;5000933;28;20207;-61
2023/11/23 01:19:13;;;;;;;7.80;6.87;;;4.20;99.90;;;;;;5001955;28;20226;-61
2023/11/23 01:21:40;;;;;;;9.30;7.00;;;4.20;99.90;;;;;;5004197;28;20302;-61
2023/11/23 01:24:08;;;;;;;8.10;6.90;;;4.10;99.90;;;;;;5005265;28;20207;-61
2023/11/23 01:26:34;;;;;;;9.67;7.10;;;4.10;99.90;;;;;;5009880;28;20215;-61
2023/11/23 01:29:01;;;;;;;8.80;7.23;;;4.10;99.90;;;;;;5017760;28;20227;-61
2023/11/23 01:31:29;;;;;;;7.53;6.73;;;4.00;99.90;;;;;;5029762;28;20210;-61
2023/11/23 01:33:57;;;;;;;9.53;6.77;;;4.10;99.90;;;;;;5020821;28;20633;-61
2023/11/23 01:36:24;;;;;;;9.63;7.47;;;4.30;99.90;;;;;;5024293;28;20262;-61
2023/11/23 01:38:51;;;;;;;8.53;7.50;;;4.30;99.90;;;;;;5028532;28;20222;-61
2023/11/23 01:41:17;;;;;;;10.13;7.43;;;4.40;99.90;;;;;;5027288;28;20209;-60
2023/11/23 01:43:45;;;;;;;8.83;7.77;;;4.50;99.90;;;;;;5023748;28;20203;-61
2023/11/23 01:46:12;;;;;;;8.73;7.50;;;4.50;99.90;;;;;;5025326;28;20211;-60
2023/11/23 01:48:39;;;;;;;8.40;7.17;;;4.50;99.90;;;;;;5025909;28;20769;-63
2023/11/23 01:51:09;;;;;;;8.07;7.00;;;4.50;99.90;;;;;;5027557;28;20266;-60
2023/11/23 01:53:36;;;;;;;10.40;7.93;;;4.40;99.90;;;;;;5024560;28;20202;-60
2023/11/23 01:56:02;;;;;;;8.50;7.30;;;4.40;99.90;;;;;;5022021;28;20693;-60
2023/11/23 01:58:30;;;;;;;9.23;7.43;;;4.40;99.90;;;;;;5022637;28;20200;-61
2023/11/23 02:00:57;;;;;;;11.40;7.47;;;4.30;99.90;;;;;;5023914;28;20211;-61
2023/11/23 02:03:24;;;;;;;9.50;7.80;;;4.20;99.90;;;;;;5024195;28;20230;-61
2023/11/23 02:05:50;;;;;;;10.93;7.67;;;4.10;99.90;;;;;;5020872;28;20211;-60
2023/11/23 02:08:18;;;;;;;8.17;7.27;;;4.00;99.90;;;;;;5015406;28;20234;-61
2023/11/23 02:10:45;;;;;;;10.90;7.83;;;4.00;99.90;;;;;;5007557;28;20625;-61
2023/11/23 02:13:12;;;;;;;8.70;7.80;;;4.00;99.90;;;;;;5007949;28;20673;-61
2023/11/23 02:15:40;;;;;;;11.60;8.53;;;4.40;99.90;;;;;;5005468;28;20685;-61
2023/11/23 02:18:08;;;;;;;11.50;8.23;;;3.90;99.90;;;;;;5004578;28;20210;-60
2023/11/23 02:20:35;;;;;;;9.50;8.10;;;3.90;99.90;;;;;;5005508;28;20223;-61
2023/11/23 02:23:03;;;;;;;9.73;7.80;;;3.80;99.90;;;;;;5007534;28;20590;-60
2023/11/23 02:25:31;;;;;;;10.33;7.37;;;3.80;99.90;;;;;;5006476;28;20199;-60
2023/11/23 02:27:58;;;;;;;9.50;7.83;;;3.70;99.90;;;;;;5004183;28;20223;-61
2023/11/23 02:30:24;;;;;;;9.40;7.20;;;3.70;99.90;;;;;;5004094;28;20230;-61
2023/11/23 02:32:51;;;;;;;7.90;6.67;;;3.60;99.90;;;;;;5007294;28;20222;-61
2023/11/23 02:35:19;;;;;;;7.67;6.70;;;3.60;99.90;;;;;;5007386;28;20210;-61
2023/11/23 02:37:46;;;;;;;9.03;7.07;;;3.60;99.90;;;;;;5004265;28;20204;-61
2023/11/23 02:40:13;;;;;;;9.77;8.07;;;3.60;99.90;;;;;;5003721;28;20227;-61
2023/11/23 02:42:41;;;;;;;12.97;8.43;;;3.60;99.90;;;;;;5004775;28;20208;-61
2023/11/23 02:45:09;;;;;;;9.67;8.67;;;3.60;99.90;;;;;;5007227;28;20211;-61
2023/11/23 02:47:35;;;;;;;9.77;8.70;;;3.70;99.90;;;;;;5005080;28;20218;-61
2023/11/23 02:50:04;;;;;;;8.97;7.50;;;3.80;99.90;;;;;;5003433;28;20228;-61
2023/11/23 02:52:31;;;;;;;10.10;7.83;;;3.80;99.90;;;;;;5003779;28;20238;-61
2023/11/23 02:54:57;;;;;;;8.37;7.03;;;3.90;99.90;;;;;;5003443;28;20589;-60
2023/11/23 02:57:24;;;;;;;8.87;7.70;;;3.80;99.90;;;;;;5003555;28;20204;-60
2023/11/23 02:59:52;;;;;;;9.03;7.23;;;3.80;99.90;;;;;;5007034;28;20226;-61
2023/11/23 03:02:20;;;;;;;9.43;7.43;;;3.60;99.90;;;;;;5006670;28;20559;-61
2023/11/23 03:04:47;;;;;;;9.37;7.67;;;3.60;99.90;;;;;;5003968;28;20294;-61
2023/11/23 03:07:13;;;;;;;10.07;7.93;;;3.60;99.90;;;;;;5003659;28;20200;-61
2023/11/23 03:09:40;;;;;;;9.40;7.53;;;3.60;99.90;;;;;;5005400;28;20231;-60
2023/11/23 03:12:07;;;;;;;10.93;8.03;;;3.60;99.90;;;;;;5006618;28;20207;-60
2023/11/23 03:14:34;;;;;;;10.43;8.43;;;3.60;99.90;;;;;;5005035;28;20206;-60
2023/11/23 03:17:02;;;;;;;10.37;7.57;;;3.50;99.90;;;;;;5003210;28;20222;-62
2023/11/23 03:19:29;;;;;;;9.60;7.97;;;3.40;99.90;;;;;;5003476;28;20219;-61
2023/11/23 03:21:56;;;;;;;8.87;7.77;;;3.40;99.90;;;;;;5006304;28;20207;-61
2023/11/23 03:24:24;;;;;;;9.97;7.83;;;3.40;99.90;;;;;;5006380;28;20213;-61
2023/11/23 03:26:50;;;;;;;10.50;8.23;;;3.40;99.90;;;;;;5002518;28;20594;-61
2023/11/23 03:29:17;;;;;;;9.93;8.00;;;3.30;99.90;;;;;;5002256;28;20281;-61
2023/11/23 03:31:44;;;;;;;10.00;7.97;;;3.30;99.90;;;;;;5005230;28;20215;-61
2023/11/23 03:34:12;;;;;;;10.67;8.73;;;3.20;99.90;;;;;;5006319;28;20559;-61
2023/11/23 03:36:38;;;;;;;13.63;9.30;;;3.20;99.90;;;;;;5004154;28;20203;-62
2023/11/23 03:39:06;;;;;;;13.03;10.10;;;3.10;99.90;;;;;;5002653;28;20220;-61
2023/11/23 03:41:34;;;;;;;13.40;9.80;;;3.20;99.90;;;;;;5003313;28;20738;-61
2023/11/23 03:44:01;;;;;;;14.30;10.20;;;3.20;99.90;;;;;;5005970;28;20211;-61
2023/11/23 03:46:27;;;;;;;12.50;9.57;;;3.20;99.90;;;;;;5005545;28;20210;-61
2023/11/23 03:48:56;;;;;;;11.50;8.87;;;3.20;99.90;;;;;;5002574;28;20311;-62
2023/11/23 03:51:24;;;;;;;12.23;8.43;;;3.20;99.90;;;;;;5002456;28;20217;-61
2023/11/23 03:53:51;;;;;;;11.07;9.27;;;3.10;99.90;;;;;;5006047;28;20214;-61
2023/11/23 03:56:18;;;;;;;12.73;9.13;;;3.10;99.90;;;;;;5005173;28;20692;-61
2023/11/23 03:58:45;;;;;;;10.07;8.60;;;3.00;99.90;;;;;;5003135;28;20257;-61
2023/11/23 04:01:13;;;;;;;10.73;8.40;;;2.90;99.90;;;;;;5002384;28;20226;-60
2023/11/23 04:03:44;;;;;;;10.70;8.67;;;2.90;99.90;;;;;;5004533;28;20214;-61
2023/11/23 04:06:10;;;;;;;11.97;9.80;;;2.90;99.90;;;;;;5005089;28;20210;-61
2023/11/23 04:11:05;;;;;;;12.17;9.47;;;3.00;99.90;;;;;;5050028;22;20699;-55
2023/11/23 04:13:32;;;;;;;16.10;11.00;;;3.00;99.90;;;;;;5022640;28;20252;-55
2023/11/23 04:15:58;;;;;;;20.60;11.93;;;3.00;99.90;;;;;;5020116;28;20215;-56
2023/11/23 04:18:25;;;;;;;31.97;16.50;;;3.00;99.90;;;;;;5019937;28;20691;-56
2023/11/23 04:20:52;;;;;;;21.60;12.23;;;3.00;99.90;;;;;;5023374;28;20222;-55
2023/11/23 04:23:18;;;;;;;12.70;9.07;;;3.00;99.90;;;;;;5031562;28;20198;-55
2023/11/23 04:25:45;;;;;;;11.57;9.00;;;3.00;99.90;;;;;;5030617;28;20206;-55
2023/11/23 04:28:13;;;;;;;10.40;8.37;;;2.90;99.90;;;;;;5031351;28;20202;-56
2023/11/23 04:30:40;;;;;;;9.33;7.83;;;2.90;99.90;;;;;;5031321;28;20222;-55
2023/11/23 04:33:07;;;;;;;18.77;11.03;;;2.80;99.90;;;;;;5031482;28;20261;-56
2023/11/23 04:35:34;;;;;;;16.60;10.93;;;2.90;99.90;;;;;;5031086;28;20206;-56
2023/11/23 04:38:01;;;;;;;203.37;87.40;;;2.80;99.90;;;;;;5031247;28;20276;-56
2023/11/23 04:40:28;;;;;;;76.50;36.57;;;2.70;99.90;;;;;;5031080;28;20218;-56
2023/11/23 04:42:55;;;;;;;15.67;11.27;;;2.70;99.90;;;;;;5031252;28;20206;-56
2023/11/23 04:45:23;;;;;;;15.03;10.03;;;2.70;99.90;;;;;;5031107;28;20213;-54
2023/11/23 04:47:50;;;;;;;13.10;9.20;;;2.70;99.90;;;;;;5030992;28;20229;-55
2023/11/23 04:50:16;;;;;;;11.40;9.27;;;2.70;99.90;;;;;;5031019;28;20253;-55
2023/11/23 04:52:43;;;;;;;10.20;8.77;;;2.70;99.90;;;;;;5030863;28;20210;-56
2023/11/23 04:55:10;;;;;;;12.20;9.50;;;2.80;99.90;;;;;;5031098;28;20215;-56
2023/11/23 04:57:36;;;;;;;11.87;8.70;;;2.80;99.90;;;;;;5031022;28;20257;-55
2023/11/23 05:00:04;;;;;;;10.57;8.50;;;2.70;99.90;;;;;;5030745;28;20726;-56
2023/11/23 05:02:32;;;;;;;10.63;8.87;;;2.90;99.90;;;;;;5030817;28;20202;-55
2023/11/23 05:04:59;;;;;;;10.23;8.27;;;2.90;99.90;;;;;;5030049;28;20256;-56
2023/11/23 05:07:25;;;;;;;10.13;8.60;;;2.90;99.90;;;;;;5031052;28;20199;-56
2023/11/23 05:09:52;;;;;;;11.80;8.57;;;2.90;99.90;;;;;;5030572;28;20221;-56
2023/11/23 05:12:19;;;;;;;9.77;8.47;;;3.00;99.90;;;;;;5030674;28;20210;-54
2023/11/23 05:14:45;;;;;;;10.63;8.47;;;3.00;99.90;;;;;;5030483;28;20304;-56
2023/11/23 05:17:12;;;;;;;10.17;8.30;;;3.00;99.90;;;;;;5030579;28;20206;-55
2023/11/23 05:19:40;;;;;;;23.67;9.13;;;3.10;99.90;;;;;;5030446;28;20632;-55
2023/11/23 05:22:07;;;;;;;11.50;9.37;;;3.10;99.90;;;;;;5030717;28;20213;-57
2023/11/23 05:24:33;;;;;;;11.43;8.10;;;3.10;99.90;;;;;;5030541;28;20206;-56
2023/11/23 05:27:00;;;;;;;10.07;8.00;;;3.10;99.90;;;;;;5030548;28;20206;-55
2023/11/23 05:29:27;;;;;;;10.33;7.97;;;3.10;99.90;;;;;;5030412;28;20229;-55
2023/11/23 05:31:53;;;;;;;9.87;8.03;;;3.10;99.90;;;;;;5022285;28;20209;-55
2023/11/23 05:34:20;;;;;;;10.23;8.40;;;3.20;99.90;;;;;;5030395;28;20225;-55
2023/11/23 05:36:48;;;;;;;8.87;7.60;;;3.20;99.90;;;;;;5030574;28;20217;-55
2023/11/23 05:39:15;;;;;;;9.60;7.70;;;3.20;99.90;;;;;;5029991;28;20233;-56
2023/11/23 05:41:42;;;;;;;10.77;7.90;;;3.10;99.90;;;;;;5030217;28;20210;-56
2023/11/23 05:44:09;;;;;;;11.23;8.73;;;3.10;99.90;;;;;;5030391;28;20273;-55
2023/11/23 05:46:36;;;;;;;13.53;10.47;;;3.10;99.90;;;;;;5030047;28;20597;-56
2023/11/23 05:49:03;;;;;;;14.27;10.73;;;3.10;99.90;;;;;;5030311;28;20237;-56
2023/11/23 05:51:29;;;;;;;16.87;11.73;;;3.10;99.90;;;;;;5030175;28;20202;-55
2023/11/23 05:53:58;;;;;;;18.03;11.93;;;3.00;99.90;;;;;;5030500;28;20301;-56
2023/11/23 05:56:24;;;;;;;16.63;11.93;;;3.00;99.90;;;;;;5029949;28;20206;-55
2023/11/23 05:58:51;;;;;;;16.10;13.13;;;3.00;99.90;;;;;;5030224;28;20613;-56
2023/11/23 06:01:18;;;;;;;16.00;11.13;;;3.00;99.90;;;;;;5030410;28;20671;-56
2023/11/23 06:03:45;;;;;;;15.17;11.50;;;3.00;99.90;;;;;;5030304;28;20210;-55
2023/11/23 06:06:19;;;;;;;12.93;10.40;;;3.00;99.90;;;;;;5030658;28;20213;-54
2023/11/23 06:08:45;;;;;;;26.83;18.57;;;2.90;99.90;;;;;;5030110;28;20230;-56
2023/11/23 06:11:14;;;;;;;17.93;12.40;;;2.90;99.90;;;;;;5029956;28;20206;-56
2023/11/23 06:13:42;;;;;;;13.97;10.53;;;2.80;99.90;;;;;;5029972;28;20260;-55
2023/11/23 06:16:09;;;;;;;14.27;10.07;;;2.80;99.90;;;;;;5031393;28;20531;-55
2023/11/23 06:18:36;;;;;;;13.60;10.63;;;2.70;99.90;;;;;;5033616;28;20209;-56
2023/11/23 06:21:03;;;;;;;15.20;11.03;;;2.60;99.90;;;;;;5033255;28;20202;-55
2023/11/23 06:23:30;;;;;;;13.37;10.77;;;2.60;99.90;;;;;;5033563;28;20209;-55
2023/11/23 06:25:56;;;;;;;14.73;10.27;;;2.50;99.90;;;;;;5025353;28;20325;-55
2023/11/23 06:28:24;;;;;;;13.70;10.40;;;2.50;99.90;;;;;;5033412;28;20220;-54
2023/11/23 06:30:52;;;;;;;12.33;9.87;;;2.50;99.90;;;;;;5033166;28;20248;-55
2023/11/23 06:33:18;;;;;;;16.50;12.70;;;2.60;99.90;;;;;;5033181;28;20564;-56
2023/11/23 06:35:45;;;;;;;11.40;9.03;;;2.60;99.90;;;;;;5033039;28;20614;-56
2023/11/23 06:38:12;;;;;;;12.27;9.27;;;2.60;99.90;;;;;;5033446;28;20218;-56
2023/11/23 06:40:39;;;;;;;11.57;8.07;;;2.60;99.90;;;;;;5033270;28;20222;-56
2023/11/23 06:43:05;;;;;;;12.97;8.80;;;2.60;99.90;;;;;;5033334;28;20205;-55
2023/11/23 06:45:33;;;;;;;12.03;8.73;;;2.50;99.90;;;;;;5032988;28;20281;-55
2023/11/23 06:48:00;;;;;;;13.97;9.33;;;2.50;99.90;;;;;;5033361;28;20210;-55
2023/11/23 06:50:27;;;;;;;12.33;8.50;;;2.50;99.90;;;;;;5032790;28;20264;-56
2023/11/23 06:52:54;;;;;;;12.40;9.63;;;2.50;99.90;;;;;;5033163;28;20202;-55
2023/11/23 06:55:20;;;;;;;11.87;9.07;;;2.60;99.90;;;;;;5033314;28;20228;-54
2023/11/23 06:57:47;;;;;;;10.37;8.57;;;2.60;99.90;;;;;;5033336;28;20217;-57
2023/11/23 07:00:22;;;;;;;14.03;9.53;;;2.60;99.90;;;;;;5033237;28;20640;-54
2023/11/23 07:02:50;;;;;;;16.17;9.00;;;2.50;99.90;;;;;;5033145;28;20201;-54
2023/11/23 07:05:18;;;;;;;17.47;10.13;;;2.40;99.90;;;;;;5032912;28;20313;-54
2023/11/23 07:07:47;;;;;;;11.40;8.87;;;2.30;99.90;;;;;;5033435;28;20207;-54
2023/11/23 07:10:14;;;;;;;13.07;8.53;;;2.20;99.90;;;;;;5032875;28;20218;-54
2023/11/23 07:12:41;;;;;;;13.03;7.83;;;2.20;99.90;;;;;;5033590;28;20224;-54
2023/11/23 07:15:09;;;;;;;10.07;7.53;;;2.30;99.90;;;;;;5033421;28;20690;-55
2023/11/23 07:17:36;;;;;;;13.27;7.93;;;2.40;99.90;;;;;;5033123;28;20217;-53
2023/11/23 07:20:05;;;;;;;12.83;7.83;;;2.30;99.90;;;;;;5032832;28;20737;-55
2023/11/23 07:22:33;;;;;;;8.57;6.90;;;2.40;99.90;;;;;;5032684;28;20237;-55
2023/11/23 07:24:59;;;;;;;8.60;7.20;;;2.60;99.90;;;;;;5032810;28;20206;-55
2023/11/23 07:27:26;;;;;;;9.53;6.70;;;2.80;99.90;;;;;;5032427;28;20207;-54
2023/11/23 07:29:53;;;;;;;9.13;5.77;;;2.90;99.90;;;;;;5032493;28;20334;-55
2023/11/23 07:32:20;;;;;;;7.97;6.50;;;3.10;99.90;;;;;;5032422;28;20210;-55
2023/11/23 07:34:47;;;;;;;6.47;5.53;;;3.50;99.90;;;;;;5032264;28;20206;-54
2023/11/23 07:37:15;;;;;;;11.23;7.50;;;3.40;99.90;;;;;;5032814;28;20198;-54
2023/11/23 07:39:42;;;;;;;7.87;5.50;;;3.50;99.90;;;;;;5032241;28;20588;-54
2023/11/23 07:42:09;;;;;;;7.47;5.37;;;3.60;99.90;;;;;;5032267;28;20205;-54
2023/11/23 07:44:36;;;;;;;7.87;4.80;;;3.70;99.90;;;;;;5032247;28;20202;-55
2023/11/23 07:47:03;;;;;;;6.63;5.00;;;3.90;99.90;;;;;;5032173;28;20210;-54
2023/11/23 07:49:29;;;;;;;6.20;4.73;;;3.90;99.90;;;;;;5032097;28;20716;-55
2023/11/23 07:51:57;;;;;;;6.77;4.80;;;4.10;99.90;;;;;;5031909;28;20205;-55
2023/11/23 07:54:25;;;;;;;5.27;4.53;;;4.20;99.90;;;;;;5032016;28;20213;-55
2023/11/23 07:56:53;;;;;;;5.73;4.17;;;4.40;99.90;;;;;;5031933;28;20210;-54
2023/11/23 07:59:19;;;;;;;6.53;4.30;;;4.50;99.90;;;;;;5032270;28;20246;-55
2023/11/23 08:01:46;;;;;;;7.17;4.57;;;4.70;99.90;;;;;;5031962;28;20344;-55
2023/11/23 08:04:13;;;;;;;5.33;4.20;;;4.70;99.90;;;;;;5031702;28;20741;-55
2023/11/23 08:06:40;;;;;;;6.47;4.43;;;4.70;99.90;;;;;;5032015;28;20244;-55
2023/11/23 08:09:06;;;;;;;4.67;3.87;;;4.70;99.90;;;;;;5031904;28;20230;-55
2023/11/23 08:11:36;;;;;;;5.30;4.30;;;4.80;99.90;;;;;;5031989;28;20246;-54
2023/11/23 08:14:03;;;;;;;4.83;3.73;;;4.90;99.90;;;;;;5031992;28;20206;-55
2023/11/23 08:16:29;;;;;;;4.10;3.70;;;5.00;99.90;;;;;;5031663;28;20202;-56
2023/11/23 08:18:56;;;;;;;7.60;4.10;;;5.10;99.90;;;;;;5031368;28;20203;-55
2023/11/23 08:21:23;;;;;;;4.33;3.80;;;5.20;99.90;;;;;;5031709;28;20198;-56
2023/11/23 08:23:50;;;;;;;3.57;3.23;;;5.30;99.90;;;;;;5031757;28;20210;-56
2023/11/23 08:26:17;;;;;;;4.27;3.80;;;5.40;99.90;;;;;;5031471;28;20285;-56
2023/11/23 08:28:45;;;;;;;4.70;3.73;;;5.50;99.90;;;;;;5031343;28;20202;-56
2023/11/23 08:31:12;;;;;;;4.10;3.30;;;5.50;99.90;;;;;;5031279;28;20225;-56
2023/11/23 08:33:39;;;;;;;5.90;4.20;;;5.70;99.90;;;;;;5031371;28;20214;-56
2023/11/23 08:36:07;;;;;;;6.17;3.43;;;5.90;99.90;;;;;;5031121;28;20699;-56
2023/11/23 08:38:33;;;;;;;5.73;4.27;;;6.20;99.90;;;;;;5031198;28;20198;-56
2023/11/23 08:41:01;;;;;;;3.90;3.43;;;6.50;99.90;;;;;;5022563;28;20291;-56
2023/11/23 08:43:27;;;;;;;4.57;3.57;;;6.90;99.90;;;;;;5031312;28;20198;-55
2023/11/23 08:45:55;;;;;;;5.87;3.43;;;7.30;99.90;;;;;;5031096;28;21050;-56
2023/11/23 08:48:23;;;;;;;4.37;3.80;;;7.60;99.90;;;;;;5028319;28;20213;-57
2023/11/23 08:50:50;;;;;;;5.33;3.47;;;7.80;99.90;;;;;;5030890;28;20253;-55
2023/11/23 08:53:16;;;;;;;4.23;3.50;;;8.10;99.90;;;;;;5031170;28;20198;-60
2023/11/23 08:55:48;;;;;;;3.60;3.23;;;8.20;99.90;;;;;;5030643;28;20241;-58
2023/11/23 08:58:14;;;;;;;3.67;3.07;;;8.30;99.90;;;;;;5030045;28;20291;-59
2023/11/23 09:00:41;;;;;;;3.50;3.03;;;8.40;99.90;;;;;;5022145;28;20230;-58
2023/11/23 09:03:10;;;;;;;38.43;27.97;;;8.50;99.90;;;;;;5030355;28;20210;-57
2023/11/23 09:05:36;;;;;;;6.27;4.90;;;8.60;99.90;;;;;;5031009;28;20214;-59
2023/11/23 09:08:06;;;;;;;4.57;3.20;;;8.80;99.90;;;;;;5030939;28;20202;-59
2023/11/23 09:10:33;;;;;;;7.87;3.10;;;8.80;99.90;;;;;;5030919;28;20248;-60
2023/11/23 09:13:01;;;;;;;4.80;4.20;;;8.90;99.90;;;;;;5030656;28;20217;-60
2023/11/23 09:15:28;;;;;;;8.30;4.90;;;9.10;99.90;;;;;;5030830;28;20213;-60
2023/11/23 09:17:55;;;;;;;5.37;3.53;;;9.20;99.90;;;;;;5031008;28;20245;-58
2023/11/23 09:20:23;;;;;;;7.60;4.17;;;9.20;99.90;;;;;;5030989;28;20221;-58
2023/11/23 09:22:50;;;;;;;4.30;2.83;;;9.30;99.90;;;;;;5032758;28;20245;-58
2023/11/23 09:25:18;;;;;;;20.20;10.97;;;9.30;99.90;;;;;;5031165;28;20210;-58
2023/11/23 09:27:45;;;;;;;41.87;22.63;;;9.40;99.90;;;;;;5030686;28;20217;-57
2023/11/23 09:30:13;;;;;;;8.20;4.83;;;9.20;99.90;;;;;;5029958;28;20264;-58
2023/11/23 09:32:40;;;;;;;4.37;2.90;;;9.20;99.90;;;;;;5029056;28;20276;-59
2023/11/23 09:35:10;;;;;;;11.47;9.00;;;9.20;99.90;;;;;;5030524;28;20212;-57
2023/11/23 09:37:38;;;;;;;6.07;3.90;;;9.20;99.90;;;;;;5030539;28;20217;-57
2023/11/23 09:40:07;;;;;;;7.07;3.50;;;9.20;99.90;;;;;;5030324;28;20230;-58
2023/11/23 09:42:37;;;;;;;5.87;3.43;;;9.30;99.90;;;;;;5030665;28;20206;-59
2023/11/23 09:45:06;;;;;;;5.33;3.70;;;9.40;99.90;;;;;;5022619;28;20209;-60
2023/11/23 09:47:35;;;;;;;5.27;3.13;;;9.40;99.90;;;;;;5031234;28;20309;-59
2023/11/23 09:50:03;;;;;;;4.60;3.67;;;9.50;99.90;;;;;;5022843;28;20226;-59
2023/11/23 09:52:30;;;;;;;5.30;3.60;;;9.60;99.90;;;;;;5034320;28;20585;-60
2023/11/23 09:55:01;;;;;;;3.90;3.50;;;9.70;99.90;;;;;;5034395;28;20221;-59
2023/11/23 09:57:28;;;;;;;4.37;3.20;;;9.70;99.90;;;;;;5034226;28;20210;-59
2023/11/23 09:59:55;;;;;;;4.07;3.37;;;9.80;99.90;;;;;;5034448;28;20230;-59
2023/11/23 10:02:23;;;;;;;4.90;3.63;;;9.80;99.90;;;;;;5034191;28;20718;-57
2023/11/23 10:04:52;;;;;;;5.53;3.10;;;9.70;99.90;;;;;;5033707;28;20210;-58
2023/11/23 10:07:19;;;;;;;5.77;4.00;;;9.70;99.90;;;;;;5034015;28;20212;-56
2023/11/23 10:09:48;;;;;;;4.20;3.50;;;9.70;99.90;;;;;;5048718;22;20280;-59
2023/11/23 10:12:16;;;;;;;3.80;3.30;;;9.80;99.90;;;;;;5034075;28;20218;-59
2023/11/23 10:14:42;;;;;;;5.30;3.07;;;9.80;99.90;;;;;;5033957;28;20222;-59
2023/11/23 10:17:10;;;;;;;8.63;3.67;;;9.90;99.90;;;;;;5034031;28;20585;-62
2023/11/23 10:19:37;;;;;;;4.67;3.20;;;9.90;99.90;;;;;;5033759;28;20234;-59
2023/11/23 10:22:04;;;;;;;7.47;3.60;;;10.00;99.90;;;;;;5025758;28;20203;-60
2023/11/23 10:24:31;;;;;;;6.40;3.20;;;10.00;99.90;;;;;;5034261;28;20213;-59
2023/11/23 10:26:58;;;;;;;7.30;3.27;;;10.00;99.90;;;;;;5033879;28;20225;-59
2023/11/23 10:29:28;;;;;;;4.80;2.90;;;10.00;99.90;;;;;;5033779;28;20691;-59
2023/11/23 10:31:59;;;;;;;7.00;3.20;;;10.00;99.90;;;;;;5033633;28;20310;-59
2023/11/23 10:34:28;;;;;;;3.53;2.90;;;10.10;99.90;;;;;;5033398;28;20244;-59
2023/11/23 10:36:55;;;;;;;3.60;2.97;;;10.30;99.90;;;;;;5033584;28;20210;-59
2023/11/23 10:39:22;;;;;;;4.60;2.60;;;10.40;99.90;;;;;;5033627;28;20525;-59
2023/11/23 10:41:52;;;;;;;8.83;3.03;;;10.50;99.90;;;;;;5033356;28;20210;-59
2023/11/23 10:44:19;;;;;;;8.00;4.17;;;10.50;99.90;;;;;;5033404;28;20233;-59
2023/11/23 10:46:48;;;;;;;4.47;3.27;;;10.60;99.90;;;;;;5032610;28;20210;-58
2023/11/23 10:49:17;;;;;;;4.20;3.10;;;10.50;99.90;;;;;;5033548;28;20210;-59
2023/11/23 10:51:46;;;;;;;4.67;4.00;;;10.60;99.90;;;;;;5033199;28;20230;-59
2023/11/23 10:54:13;;;;;;;6.63;2.93;;;10.70;99.90;;;;;;5033305;28;20206;-60
2023/11/23 10:56:42;;;;;;;3.60;2.97;;;10.80;99.90;;;;;;5032862;28;20206;-59
2023/11/23 10:59:17;;;;;;;5.73;3.20;;;10.80;99.90;;;;;;5032859;28;20210;-59
2023/11/23 11:01:45;;;;;;;4.03;2.67;;;10.80;99.90;;;;;;5032931;28;20296;-59
2023/11/23 11:04:14;;;;;;;4.77;2.80;;;10.70;99.90;;;;;;5032910;28;20730;-60
2023/11/23 11:06:41;;;;;;;3.47;2.60;;;10.60;99.90;;;;;;5032829;28;20214;-59
2023/11/23 11:09:17;;;;;;;4.07;2.93;;;10.60;99.90;;;;;;5033378;28;20309;-59
2023/11/23 11:11:45;;;;;;;5.10;2.87;;;10.70;99.90;;;;;;5032383;28;20229;-60
2023/11/23 11:14:13;;;;;;;4.07;2.93;;;10.80;99.90;;;;;;5032967;28;20202;-61
2023/11/23 11:16:40;;;;;;;5.20;2.83;;;10.90;99.90;;;;;;5032527;28;20218;-61
2023/11/23 11:19:08;;;;;;;4.27;2.83;;;10.90;99.90;;;;;;5032838;28;20203;-63
2023/11/23 11:21:43;;;;;;;3.90;2.97;;;11.00;99.90;;;;;;5032743;28;20202;-59
2023/11/23 11:24:19;;;;;;;4.70;2.27;;;11.20;99.90;;;;;;5025490;28;20205;-62
2023/11/23 11:26:46;;;;;;;4.63;2.90;;;11.30;99.90;;;;;;5033476;28;20237;-61
2023/11/23 11:29:14;;;;;;;2.50;2.23;;;11.40;99.90;;;;;;5032410;28;20214;-61
2023/11/23 11:31:41;;;;;;;20.00;15.17;;;11.40;99.90;;;;;;5031977;28;20230;-59
2023/11/23 11:34:17;;;;;;;7.83;3.00;;;11.60;99.90;;;;;;5032354;28;20203;-60
2023/11/23 11:36:46;;;;;;;3.90;2.60;;;11.60;99.90;;;;;;5031920;28;20336;-60
2023/11/23 11:39:14;;;;;;;15.47;8.40;;;11.60;99.90;;;;;;5039538;28;20211;-61
2023/11/23 11:41:42;;;;;;;6.43;4.40;;;11.60;99.90;;;;;;5032416;28;20217;-59
2023/11/23 11:44:11;;;;;;;3.63;3.10;;;11.70;99.90;;;;;;5032463;28;20207;-60
2023/11/23 11:46:38;;;;;;;13.80;8.20;;;11.70;99.90;;;;;;5031903;28;20246;-60
2023/11/23 11:49:06;;;;;;;5.33;2.70;;;11.80;99.90;;;;;;5034176;28;20210;-61
2023/11/23 11:51:33;;;;;;;2.67;2.40;;;11.80;99.90;;;;;;5031806;28;20237;-61
2023/11/23 11:54:02;;;;;;;5.23;2.50;;;11.80;99.90;;;;;;5032295;28;20236;-61
2023/11/23 11:56:29;;;;;;;2.80;2.50;;;11.80;99.90;;;;;;5031891;28;20743;-60
2023/11/23 11:58:56;;;;;;;6.93;4.13;;;11.80;99.90;;;;;;5030112;28;20905;-61
2023/11/23 12:01:23;;;;;;;4.13;3.10;;;11.80;99.90;;;;;;5037697;28;20580;-60
2023/11/23 12:03:50;;;;;;;4.27;3.00;;;11.80;99.90;;;;;;5032041;28;20214;-60
2023/11/23 12:06:18;;;;;;;5.70;2.63;;;11.80;99.90;;;;;;5040289;28;20370;-59
2023/11/23 12:08:45;;;;;;;4.23;2.40;;;11.80;99.90;;;;;;5032145;28;20293;-60
2023/11/23 12:11:24;;;;;;;4.43;2.53;;;11.80;99.90;;;;;;5031742;28;20226;-61
2023/11/23 12:13:53;;;;;;;4.80;2.60;;;11.80;99.90;;;;;;5040107;28;20559;-60
2023/11/23 12:16:19;;;;;;;4.73;2.60;;;11.90;99.90;;;;;;5031399;28;20249;-60
2023/11/23 12:18:46;;;;;;;5.67;2.60;;;12.00;99.90;;;;;;5031857;28;20320;-61
2023/11/23 12:21:14;;;;;;;4.27;2.53;;;12.00;99.90;;;;;;5031881;28;20469;-60
2023/11/23 12:23:42;;;;;;;3.20;2.40;;;12.10;99.90;;;;;;5031574;28;20221;-60
2023/11/23 12:26:10;;;;;;;5.23;2.40;;;12.10;99.90;;;;;;5031642;28;20199;-62
2023/11/23 12:28:38;;;;;;;4.70;2.73;;;12.10;99.90;;;;;;5031583;28;20253;-60
2023/11/23 12:31:07;;;;;;;3.40;2.57;;;12.10;99.90;;;;;;5030595;28;20222;-62
2023/11/23 12:33:34;;;;;;;3.20;2.40;;;12.10;99.90;;;;;;5027428;28;20198;-62
2023/11/23 12:36:01;;;;;;;3.90;2.30;;;12.20;99.90;;;;;;5031113;28;20210;-61
2023/11/23 12:38:28;;;;;;;4.17;2.20;;;12.20;99.90;;;;;;5031516;28;20303;-62
2023/11/23 12:40:54;;;;;;;6.73;2.70;;;12.10;99.90;;;;;;5039376;28;20221;-62
2023/11/23 12:43:22;;;;;;;3.70;2.37;;;12.10;99.90;;;;;;5039586;28;20213;-61
2023/11/23 12:45:50;;;;;;;7.80;2.60;;;12.20;99.90;;;;;;5029959;28;20236;-62
2023/11/23 12:48:17;;;;;;;3.73;2.50;;;12.20;99.90;;;;;;5031101;28;20209;-60
2023/11/23 12:50:44;;;;;;;5.73;2.90;;;12.20;99.90;;;;;;5031838;28;20227;-61
2023/11/23 12:53:11;;;;;;;6.23;2.40;;;12.10;99.90;;;;;;5031471;28;20233;-60